Time;durP1;ratioP1;P1;durP2;ratioP2;P2;SDS_P1;SDS_P2;PMS_P1;PMS_P2;Temp;Humidity;BMP_temperature;BMP_pressure;BME280_temperature;BME280_humidity;BME280_pressure;Samples;Min_cycle;Max_cycle;Signal;HPM_P1;HPM_P2
2022/03/31 00:00:58;;;;;;;11.63;8.17;;;12.40;99.90;;;;;;5062596;28;20894;-80
2022/03/31 00:03:26;;;;;;;13.47;8.43;;;12.30;99.90;;;;;;5064937;28;20455;-80
2022/03/31 00:05:54;;;;;;;12.50;9.17;;;12.40;99.90;;;;;;5064244;28;20505;-79
2022/03/31 00:08:23;;;;;;;12.90;8.63;;;12.40;99.90;;;;;;5063353;28;20984;-81
2022/03/31 00:10:52;;;;;;;13.93;9.23;;;12.20;99.90;;;;;;5057411;28;20482;-80
2022/03/31 00:13:22;;;;;;;13.60;9.87;;;12.30;99.90;;;;;;5061939;28;20439;-79
2022/03/31 00:15:53;;;;;;;15.00;10.03;;;12.30;99.90;;;;;;5064270;28;20450;-79
2022/03/31 00:18:22;;;;;;;13.90;8.43;;;12.30;99.90;;;;;;5063287;28;20458;-80
2022/03/31 00:20:50;;;;;;;14.67;9.60;;;12.20;99.90;;;;;;5062693;28;20478;-81
2022/03/31 00:23:19;;;;;;;10.23;8.57;;;12.10;99.90;;;;;;5057916;28;20459;-80
2022/03/31 00:25:47;;;;;;;13.53;8.60;;;12.10;99.90;;;;;;5056569;28;20454;-79
2022/03/31 00:28:16;;;;;;;13.23;8.13;;;12.10;99.90;;;;;;5061319;28;20984;-80
2022/03/31 00:30:44;;;;;;;17.37;10.83;;;12.10;99.90;;;;;;5066085;28;20481;-81
2022/03/31 00:33:14;;;;;;;10.27;7.90;;;12.10;99.90;;;;;;5063239;28;20458;-83
2022/03/31 00:35:42;;;;;;;12.00;8.10;;;12.20;99.90;;;;;;5057466;28;20446;-80
2022/03/31 00:38:11;;;;;;;13.57;8.37;;;12.30;99.90;;;;;;5063229;28;20461;-80
2022/03/31 00:40:40;;;;;;;11.60;8.00;;;12.10;99.90;;;;;;5062727;28;21080;-81
2022/03/31 00:43:09;;;;;;;13.83;9.20;;;11.90;99.90;;;;;;5059902;28;20452;-81
2022/03/31 00:45:47;;;;;;;14.57;8.47;;;11.90;99.90;;;;;;5060493;28;20534;-80
2022/03/31 00:48:19;;;;;;;14.00;9.50;;;11.90;99.90;;;;;;5057163;28;20507;-81
2022/03/31 00:50:48;;;;;;;14.47;9.70;;;12.00;99.90;;;;;;5062128;28;20480;-80
2022/03/31 00:53:17;;;;;;;14.73;8.83;;;12.00;99.90;;;;;;5059989;28;20438;-79
2022/03/31 00:56:01;;;;;;;13.73;7.60;;;12.10;99.90;;;;;;5060305;28;20455;-81
2022/03/31 00:58:32;;;;;;;10.13;7.60;;;12.10;99.90;;;;;;5062862;28;20539;-81
2022/03/31 01:01:00;;;;;;;13.67;8.33;;;12.00;99.90;;;;;;5066603;28;20466;-81
2022/03/31 01:03:30;;;;;;;15.37;8.90;;;12.00;99.90;;;;;;5064291;28;20452;-81
2022/03/31 01:05:58;;;;;;;12.60;8.33;;;12.00;99.90;;;;;;5067848;28;20537;-81
2022/03/31 01:08:26;;;;;;;13.33;8.37;;;11.90;99.90;;;;;;5065433;28;20454;-81
2022/03/31 01:10:56;;;;;;;12.70;8.37;;;11.90;99.90;;;;;;5072046;28;20507;-79
2022/03/31 01:13:24;;;;;;;12.60;9.00;;;12.30;99.90;;;;;;5064040;28;20482;-80
2022/03/31 01:15:52;;;;;;;13.13;8.20;;;12.10;99.90;;;;;;5068181;28;20493;-81
2022/03/31 01:18:20;;;;;;;20.27;8.47;;;12.10;99.90;;;;;;5066509;28;20519;-82
2022/03/31 01:20:50;;;;;;;12.80;7.97;;;12.00;99.90;;;;;;5061312;28;20483;-81
2022/03/31 01:23:20;;;;;;;11.93;7.40;;;12.00;99.90;;;;;;5062554;28;20815;-80
2022/03/31 01:25:48;;;;;;;12.73;7.23;;;12.00;99.90;;;;;;5065373;28;21165;-80
2022/03/31 01:28:16;;;;;;;12.93;8.73;;;12.00;99.90;;;;;;5068579;28;20459;-80
2022/03/31 01:30:45;;;;;;;13.07;8.60;;;12.00;99.90;;;;;;5067626;28;21768;-80
2022/03/31 01:33:14;;;;;;;15.77;9.33;;;12.00;99.90;;;;;;5063052;28;20701;-79
2022/03/31 01:35:42;;;;;;;12.37;8.07;;;11.90;99.90;;;;;;5063572;28;20545;-81
2022/03/31 01:38:10;;;;;;;13.60;9.13;;;11.90;99.90;;;;;;5065365;28;20937;-79
2022/03/31 01:40:41;;;;;;;13.67;8.80;;;12.00;99.90;;;;;;5069287;28;20481;-80
2022/03/31 01:43:09;;;;;;;13.80;8.87;;;11.90;99.90;;;;;;5068853;28;20470;-80
2022/03/31 01:45:38;;;;;;;11.70;7.17;;;11.90;99.90;;;;;;5064989;28;20451;-80
2022/03/31 01:48:06;;;;;;;12.83;9.50;;;11.80;99.90;;;;;;5064125;28;20605;-80
2022/03/31 01:50:35;;;;;;;14.40;8.70;;;11.80;99.90;;;;;;5068374;28;20474;-80
2022/03/31 01:53:04;;;;;;;9.20;6.27;;;12.20;99.90;;;;;;5069319;28;20482;-80
2022/03/31 01:55:32;;;;;;;10.30;8.20;;;12.00;99.90;;;;;;5064085;28;21269;-80
2022/03/31 01:58:02;;;;;;;11.77;7.40;;;12.00;99.90;;;;;;5072792;28;20504;-82
2022/03/31 02:00:30;;;;;;;14.03;7.80;;;11.90;99.90;;;;;;5061668;28;20485;-80
2022/03/31 02:02:59;;;;;;;15.13;8.47;;;11.90;99.90;;;;;;5064564;28;20962;-80
2022/03/31 02:05:27;;;;;;;11.37;8.70;;;11.90;99.90;;;;;;5068675;28;20442;-81
2022/03/31 02:07:56;;;;;;;14.70;8.40;;;11.80;99.90;;;;;;5070726;28;20877;-80
2022/03/31 02:10:26;;;;;;;11.40;7.50;;;11.80;99.90;;;;;;5068323;28;20485;-79
2022/03/31 02:12:55;;;;;;;11.00;7.77;;;11.70;99.90;;;;;;5069265;28;21001;-80
2022/03/31 02:15:26;;;;;;;11.57;7.93;;;11.70;99.90;;;;;;5059009;28;20981;-80
2022/03/31 02:17:55;;;;;;;14.13;9.40;;;11.60;99.90;;;;;;5064323;28;20447;-78
2022/03/31 02:20:24;;;;;;;13.30;9.43;;;11.80;99.90;;;;;;5063772;28;21057;-84
2022/03/31 02:22:53;;;;;;;13.90;8.47;;;11.70;99.90;;;;;;5061285;28;20503;-81
2022/03/31 02:25:21;;;;;;;11.30;7.40;;;11.70;99.90;;;;;;5072753;28;20454;-81
2022/03/31 02:27:52;;;;;;;11.97;8.93;;;11.80;99.90;;;;;;5065060;28;20451;-82
2022/03/31 02:30:21;;;;;;;16.13;9.80;;;11.90;99.90;;;;;;5067508;28;20558;-80
2022/03/31 02:32:51;;;;;;;13.50;8.37;;;11.90;99.90;;;;;;5060906;28;20466;-80
2022/03/31 02:35:19;;;;;;;13.60;9.07;;;11.80;99.90;;;;;;5065839;28;20474;-80
2022/03/31 02:37:48;;;;;;;13.63;7.70;;;11.80;99.90;;;;;;5065196;28;20677;-80
2022/03/31 02:40:16;;;;;;;11.20;7.63;;;11.90;99.90;;;;;;5058656;28;20618;-82
2022/03/31 02:42:44;;;;;;;15.07;8.20;;;11.90;99.90;;;;;;5057902;28;20467;-80
2022/03/31 02:45:13;;;;;;;17.50;9.50;;;11.80;99.90;;;;;;5063679;28;20481;-80
2022/03/31 02:47:44;;;;;;;11.93;8.33;;;11.80;99.90;;;;;;5060972;28;20469;-82
2022/03/31 02:50:15;;;;;;;9.97;7.80;;;11.90;99.90;;;;;;5055670;28;20475;-80
2022/03/31 02:55:29;;;;;;;13.73;8.07;;;11.80;99.90;;;;;;5064335;28;20470;-80
2022/03/31 02:58:00;;;;;;;13.17;7.90;;;11.80;99.90;;;;;;5067800;28;20482;-82
2022/03/31 03:00:30;;;;;;;11.00;6.90;;;11.70;99.90;;;;;;5064978;28;20502;-80
2022/03/31 03:02:59;;;;;;;12.73;7.70;;;11.70;99.90;;;;;;5058777;28;21218;-80
2022/03/31 03:05:29;;;;;;;14.87;9.63;;;11.80;99.90;;;;;;5061202;28;20459;-80
2022/03/31 03:07:57;;;;;;;13.50;8.40;;;11.70;99.90;;;;;;5063072;28;20448;-81
2022/03/31 03:10:26;;;;;;;11.00;8.40;;;12.00;99.90;;;;;;5068268;28;20474;-80
2022/03/31 03:12:55;;;;;;;12.80;8.80;;;11.60;99.90;;;;;;5061927;28;20475;-81
2022/03/31 03:15:24;;;;;;;15.57;8.73;;;11.70;99.90;;;;;;5064339;28;20447;-80
2022/03/31 03:17:53;;;;;;;15.77;8.83;;;11.70;99.90;;;;;;5062758;28;20447;-80
2022/03/31 03:20:24;;;;;;;11.67;8.20;;;11.60;99.90;;;;;;5062364;28;20466;-80
2022/03/31 03:22:55;;;;;;;10.33;7.93;;;11.60;99.90;;;;;;5063499;28;20545;-80
2022/03/31 03:25:23;;;;;;;13.50;9.60;;;11.60;99.90;;;;;;5055113;28;20489;-80
2022/03/31 03:27:52;;;;;;;11.07;7.40;;;11.60;99.90;;;;;;5061787;28;20466;-81
2022/03/31 03:30:22;;;;;;;16.20;8.87;;;11.60;99.90;;;;;;5065749;28;20544;-81
2022/03/31 03:32:50;;;;;;;10.00;7.73;;;11.70;99.90;;;;;;5063127;28;20520;-79
2022/03/31 03:35:18;;;;;;;12.47;8.90;;;11.70;99.90;;;;;;5062289;28;20466;-78
2022/03/31 03:37:47;;;;;;;12.90;8.40;;;11.70;99.90;;;;;;5061577;28;20458;-78
2022/03/31 03:40:17;;;;;;;10.63;7.40;;;11.60;99.90;;;;;;5056797;28;20497;-81
2022/03/31 03:42:45;;;;;;;11.70;8.07;;;12.00;99.90;;;;;;5057984;28;20466;-82
2022/03/31 03:45:14;;;;;;;12.20;8.47;;;11.60;99.90;;;;;;5060411;28;20454;-81
2022/03/31 03:47:43;;;;;;;13.83;8.30;;;11.60;99.90;;;;;;5061133;28;20459;-82
2022/03/31 03:50:12;;;;;;;11.77;8.00;;;11.60;99.90;;;;;;5063161;28;20554;-82
2022/03/31 03:52:40;;;;;;;13.10;8.60;;;11.60;99.90;;;;;;5057034;28;20451;-82
2022/03/31 03:55:10;;;;;;;14.20;9.27;;;11.60;99.90;;;;;;5063633;28;20542;-81
2022/03/31 03:57:40;;;;;;;13.03;8.93;;;11.50;99.90;;;;;;5069310;28;20457;-81
2022/03/31 04:00:09;;;;;;;12.73;8.47;;;11.60;99.90;;;;;;5069522;28;20485;-82
2022/03/31 04:02:38;;;;;;;13.97;8.10;;;11.60;99.90;;;;;;5065574;28;20464;-82
2022/03/31 04:05:07;;;;;;;12.37;8.47;;;11.90;99.90;;;;;;5061655;28;20435;-82
2022/03/31 04:07:35;;;;;;;12.83;8.50;;;11.60;99.90;;;;;;5061407;28;20446;-82
2022/03/31 04:10:04;;;;;;;15.40;9.60;;;11.80;99.90;;;;;;5061681;28;20994;-80
2022/03/31 04:12:32;;;;;;;15.47;9.20;;;11.60;99.90;;;;;;5064717;28;20958;-83
2022/03/31 04:15:04;;;;;;;12.63;9.33;;;11.60;99.90;;;;;;5062060;28;20485;-79
2022/03/31 04:17:33;;;;;;;13.40;9.40;;;11.50;99.90;;;;;;5059803;28;20461;-80
2022/03/31 04:20:01;;;;;;;15.33;9.27;;;11.60;99.90;;;;;;5064323;28;20470;-81
2022/03/31 04:22:33;;;;;;;13.60;9.10;;;11.60;99.90;;;;;;5062275;28;22081;-80
2022/03/31 04:25:01;;;;;;;13.97;9.00;;;11.50;99.90;;;;;;5063825;28;21034;-82
2022/03/31 04:27:30;;;;;;;11.80;8.00;;;11.70;99.90;;;;;;5064379;28;20550;-82
2022/03/31 04:29:58;;;;;;;15.20;9.70;;;11.40;99.90;;;;;;5054918;28;21010;-82
2022/03/31 04:32:28;;;;;;;12.77;9.93;;;11.40;99.90;;;;;;5065783;28;20462;-81
2022/03/31 04:34:56;;;;;;;12.90;8.90;;;11.40;99.90;;;;;;5064903;28;20471;-76
2022/03/31 04:37:25;;;;;;;13.67;8.40;;;11.30;99.90;;;;;;5062235;28;20504;-78
2022/03/31 04:39:54;;;;;;;13.93;8.83;;;11.30;99.90;;;;;;5065814;28;20546;-78
2022/03/31 04:42:22;;;;;;;16.60;9.30;;;11.30;99.90;;;;;;5067651;28;20461;-80
2022/03/31 04:44:51;;;;;;;12.30;8.53;;;11.40;99.90;;;;;;5065143;28;20450;-80
2022/03/31 04:47:19;;;;;;;13.77;9.03;;;11.30;99.90;;;;;;5065599;28;20809;-78
2022/03/31 04:49:49;;;;;;;13.50;9.80;;;11.30;99.90;;;;;;5060470;28;21002;-80
2022/03/31 04:52:17;;;;;;;13.27;9.43;;;11.40;99.90;;;;;;5059999;28;20471;-79
2022/03/31 04:54:45;;;;;;;12.93;9.70;;;11.40;99.90;;;;;;5061169;28;20520;-79
2022/03/31 04:57:13;;;;;;;19.90;10.83;;;11.40;99.90;;;;;;5067117;28;20454;-79
2022/03/31 04:59:42;;;;;;;15.57;10.73;;;11.30;99.90;;;;;;5061751;28;20482;-79
2022/03/31 05:02:11;;;;;;;15.23;10.60;;;11.20;99.90;;;;;;5062117;28;20450;-79
2022/03/31 05:04:39;;;;;;;18.07;10.83;;;11.00;99.90;;;;;;5058623;28;20496;-79
2022/03/31 05:07:09;;;;;;;15.97;10.73;;;11.00;99.90;;;;;;5060735;28;20960;-81
2022/03/31 05:09:38;;;;;;;17.80;11.10;;;11.00;99.90;;;;;;5064161;28;21090;-79
2022/03/31 05:12:07;;;;;;;16.13;11.07;;;11.00;99.90;;;;;;5059967;28;20450;-78
2022/03/31 05:14:35;;;;;;;17.50;10.77;;;11.00;99.90;;;;;;5058143;28;20475;-77
2022/03/31 05:17:04;;;;;;;16.10;10.87;;;11.10;99.90;;;;;;5056251;28;20466;-80
2022/03/31 05:19:32;;;;;;;17.63;11.70;;;11.10;99.90;;;;;;5054939;28;20477;-79
2022/03/31 05:22:00;;;;;;;17.40;11.50;;;11.00;99.90;;;;;;5053495;28;20455;-79
2022/03/31 05:24:30;;;;;;;12.67;9.40;;;11.00;99.90;;;;;;5060031;28;20474;-78
2022/03/31 05:26:58;;;;;;;15.50;10.70;;;11.00;99.90;;;;;;5060172;28;20449;-78
2022/03/31 05:29:26;;;;;;;15.97;12.83;;;11.20;99.90;;;;;;5058045;28;20516;-78
2022/03/31 05:31:55;;;;;;;13.67;9.03;;;11.00;99.90;;;;;;5059634;28;20455;-79
2022/03/31 05:34:24;;;;;;;15.33;11.03;;;11.00;99.90;;;;;;5062230;28;20498;-77
2022/03/31 05:36:52;;;;;;;12.30;9.57;;;11.00;99.90;;;;;;5060374;28;20462;-80
2022/03/31 05:39:20;;;;;;;15.40;9.80;;;10.90;99.90;;;;;;5058014;28;20825;-78
2022/03/31 05:41:50;;;;;;;16.92;12.32;;;11.00;99.90;;;;;;5058371;28;21278;-79
2022/03/31 05:44:18;;;;;;;15.90;11.73;;;11.00;99.90;;;;;;5063172;28;20204;-77
2022/03/31 05:46:46;;;;;;;13.80;10.07;;;11.00;99.90;;;;;;5067664;28;20458;-78
2022/03/31 05:49:14;;;;;;;16.43;10.27;;;11.00;99.90;;;;;;5067077;28;20488;-79
2022/03/31 05:51:42;;;;;;;14.10;9.70;;;10.90;99.90;;;;;;5063613;28;20462;-77
2022/03/31 05:54:10;;;;;;;13.37;9.53;;;11.00;99.90;;;;;;5065541;28;20841;-77
2022/03/31 05:56:39;;;;;;;13.53;10.37;;;10.90;99.90;;;;;;5064712;28;21194;-79
2022/03/31 05:59:09;;;;;;;14.70;10.20;;;10.90;99.90;;;;;;5058082;28;21154;-77
2022/03/31 06:01:37;;;;;;;13.77;9.70;;;10.90;99.90;;;;;;5056638;28;20451;-77
2022/03/31 06:04:05;;;;;;;11.37;8.83;;;10.90;99.90;;;;;;5068699;28;21116;-76
2022/03/31 06:06:33;;;;;;;14.33;9.33;;;10.90;99.90;;;;;;5057565;28;20468;-79
2022/03/31 06:09:02;;;;;;;13.63;9.80;;;10.90;99.90;;;;;;5064599;28;20480;-82
2022/03/31 06:11:30;;;;;;;12.17;9.23;;;11.00;99.90;;;;;;5060386;28;20530;-79
2022/03/31 06:13:59;;;;;;;14.53;10.80;;;10.90;99.90;;;;;;5060143;28;20471;-78
2022/03/31 06:16:28;;;;;;;12.90;9.33;;;10.80;99.90;;;;;;5059783;28;20822;-78
2022/03/31 06:18:56;;;;;;;13.07;9.90;;;10.80;99.90;;;;;;5061474;28;20439;-78
2022/03/31 06:21:24;;;;;;;13.07;9.07;;;10.80;99.90;;;;;;5065732;28;20469;-80
2022/03/31 06:23:53;;;;;;;17.03;10.17;;;10.80;99.90;;;;;;5069003;28;20537;-78
2022/03/31 06:26:23;;;;;;;15.03;9.47;;;10.80;99.90;;;;;;5073261;28;21041;-79
2022/03/31 06:28:51;;;;;;;14.40;11.50;;;10.70;99.90;;;;;;5066015;28;20446;-80
2022/03/31 06:31:19;;;;;;;14.23;10.00;;;10.70;99.90;;;;;;5061244;28;20466;-79
2022/03/31 06:33:49;;;;;;;14.40;9.77;;;10.70;99.90;;;;;;5069977;28;20459;-80
2022/03/31 06:36:18;;;;;;;15.07;9.90;;;10.90;99.90;;;;;;5062599;28;20993;-78
2022/03/31 06:38:47;;;;;;;14.80;10.00;;;10.90;99.90;;;;;;5067114;28;20850;-79
2022/03/31 06:41:17;;;;;;;16.30;9.90;;;11.00;99.90;;;;;;5067020;28;20477;-79
2022/03/31 06:43:48;;;;;;;12.93;8.73;;;10.90;99.90;;;;;;5070566;28;20482;-80
2022/03/31 06:46:17;;;;;;;10.53;8.93;;;11.00;99.90;;;;;;5063947;28;20441;-82
2022/03/31 06:48:47;;;;;;;17.20;11.00;;;11.00;99.90;;;;;;5068302;28;20535;-82
2022/03/31 06:51:17;;;;;;;16.00;9.73;;;11.00;99.90;;;;;;5063590;28;20466;-78
2022/03/31 06:53:46;;;;;;;17.73;11.03;;;11.00;99.90;;;;;;5060601;28;20443;-81
2022/03/31 06:56:16;;;;;;;13.90;10.10;;;10.90;99.90;;;;;;5059064;28;20468;-80
2022/03/31 06:58:45;;;;;;;17.13;11.37;;;10.90;99.90;;;;;;5069057;28;20540;-79
2022/03/31 07:01:14;;;;;;;16.30;10.43;;;10.80;99.90;;;;;;5065807;28;20490;-77
2022/03/31 07:03:42;;;;;;;14.00;10.00;;;10.70;99.90;;;;;;5067619;28;20451;-81
2022/03/31 07:06:11;;;;;;;13.80;9.80;;;10.70;99.90;;;;;;5064821;28;20457;-79
2022/03/31 07:08:40;;;;;;;14.90;10.90;;;11.10;99.90;;;;;;5060831;28;20981;-77
2022/03/31 07:11:09;;;;;;;13.90;10.23;;;10.90;99.90;;;;;;5063522;28;20481;-81
2022/03/31 07:13:38;;;;;;;13.60;9.13;;;10.90;99.90;;;;;;5065275;28;20989;-80
2022/03/31 07:16:06;;;;;;;14.33;8.93;;;10.90;99.90;;;;;;5065434;28;20490;-79
2022/03/31 07:18:35;;;;;;;13.83;9.03;;;10.80;99.90;;;;;;5068062;28;20452;-79
2022/03/31 07:21:03;;;;;;;14.60;10.13;;;10.90;99.90;;;;;;5067607;28;20490;-80
2022/03/31 07:23:31;;;;;;;13.40;8.77;;;11.20;99.90;;;;;;5065299;28;20457;-80
2022/03/31 07:26:01;;;;;;;15.67;9.70;;;11.00;99.90;;;;;;5057817;28;20982;-78
2022/03/31 07:28:29;;;;;;;14.47;9.37;;;11.00;99.90;;;;;;5064238;28;20459;-80
2022/03/31 07:30:57;;;;;;;12.50;9.13;;;11.00;99.90;;;;;;5059466;28;20479;-81
2022/03/31 07:33:25;;;;;;;15.30;9.23;;;11.00;99.90;;;;;;5063176;28;20454;-80
2022/03/31 07:35:54;;;;;;;11.23;8.30;;;11.10;99.90;;;;;;5059909;28;20478;-79
2022/03/31 07:38:22;;;;;;;12.40;8.77;;;11.00;99.90;;;;;;5066595;28;20457;-80
2022/03/31 07:40:51;;;;;;;14.57;9.90;;;11.10;99.90;;;;;;5065819;28;20466;-80
2022/03/31 07:43:21;;;;;;;10.93;8.57;;;11.00;99.90;;;;;;5065510;28;20496;-79
2022/03/31 07:45:49;;;;;;;12.87;9.60;;;10.90;99.90;;;;;;5066061;28;20443;-79
2022/03/31 07:48:18;;;;;;;13.43;9.67;;;10.90;99.90;;;;;;5063002;28;21051;-78
2022/03/31 07:50:46;;;;;;;14.60;9.77;;;10.90;99.90;;;;;;5059878;28;20486;-79
2022/03/31 07:53:17;;;;;;;14.70;9.20;;;11.00;99.90;;;;;;5069017;28;20455;-79
2022/03/31 07:55:45;;;;;;;12.63;9.20;;;11.00;99.90;;;;;;5059345;28;20577;-78
2022/03/31 07:58:13;;;;;;;12.23;8.40;;;11.20;99.90;;;;;;5057797;28;20830;-79
2022/03/31 08:00:43;;;;;;;13.67;9.60;;;11.20;99.90;;;;;;5063879;28;20490;-78
2022/03/31 08:03:11;;;;;;;12.20;9.13;;;11.10;99.90;;;;;;5064412;28;20508;-79
2022/03/31 08:05:40;;;;;;;15.13;10.13;;;11.10;99.90;;;;;;5064658;28;21255;-78
2022/03/31 08:08:09;;;;;;;14.60;9.83;;;11.10;99.90;;;;;;5066587;28;20451;-79
2022/03/31 08:10:37;;;;;;;11.67;8.53;;;11.30;99.90;;;;;;5066887;28;20500;-79
2022/03/31 08:13:06;;;;;;;11.97;9.40;;;11.40;99.90;;;;;;5061567;28;20460;-79
2022/03/31 08:15:36;;;;;;;14.13;9.27;;;11.30;99.90;;;;;;5063216;28;20985;-80
2022/03/31 08:18:07;;;;;;;21.17;12.20;;;11.30;99.90;;;;;;5065752;28;20437;-79
2022/03/31 08:20:35;;;;;;;20.60;13.43;;;11.40;99.90;;;;;;5067871;28;20473;-78
2022/03/31 08:23:03;;;;;;;16.73;11.40;;;11.70;99.90;;;;;;5066945;28;20460;-79
2022/03/31 08:25:32;;;;;;;14.20;9.60;;;11.30;99.90;;;;;;5060652;28;20547;-82
2022/03/31 08:28:00;;;;;;;14.60;10.20;;;11.40;99.90;;;;;;5061476;28;20440;-80
2022/03/31 08:30:33;;;;;;;13.70;10.90;;;11.40;99.90;;;;;;5060930;28;20487;-80
2022/03/31 08:33:01;;;;;;;13.37;8.90;;;11.50;99.90;;;;;;5065382;28;20458;-79
2022/03/31 08:35:31;;;;;;;13.07;8.20;;;11.40;99.90;;;;;;5058320;28;20988;-79
2022/03/31 08:37:59;;;;;;;12.73;9.80;;;11.30;99.90;;;;;;5060392;28;20438;-79
2022/03/31 08:40:27;;;;;;;14.07;10.23;;;11.30;99.90;;;;;;5063090;28;20478;-79
2022/03/31 08:42:55;;;;;;;20.30;11.90;;;11.60;99.90;;;;;;5059651;28;20463;-79
2022/03/31 08:45:24;;;;;;;17.80;10.57;;;11.30;99.90;;;;;;5062808;28;21021;-81
2022/03/31 08:47:53;;;;;;;16.23;9.50;;;11.40;99.90;;;;;;5064241;28;20454;-79
2022/03/31 08:50:23;;;;;;;18.57;11.43;;;11.40;99.90;;;;;;5063864;28;20475;-79
2022/03/31 08:52:54;;;;;;;21.43;11.40;;;11.40;99.90;;;;;;5065768;28;21027;-80
2022/03/31 08:55:22;;;;;;;15.13;10.33;;;11.40;99.90;;;;;;5058658;28;20540;-80
2022/03/31 08:57:54;;;;;;;20.30;10.63;;;11.20;99.90;;;;;;5065337;28;20447;-78
2022/03/31 09:00:24;;;;;;;15.50;10.53;;;11.20;99.90;;;;;;5065709;28;20510;-79
2022/03/31 09:02:55;;;;;;;18.33;10.47;;;11.20;99.90;;;;;;5060758;28;20451;-79
2022/03/31 09:05:23;;;;;;;20.37;11.23;;;11.20;99.90;;;;;;5060499;28;20533;-81
2022/03/31 09:07:58;;;;;;;15.90;11.23;;;11.30;99.90;;;;;;5063354;28;20458;-79
2022/03/31 09:10:31;;;;;;;18.70;11.17;;;11.40;99.90;;;;;;5065129;28;20913;-79
2022/03/31 09:13:02;;;;;;;14.03;10.03;;;11.50;99.90;;;;;;5070694;28;20508;-79
2022/03/31 09:15:33;;;;;;;19.67;11.30;;;11.60;99.90;;;;;;5066143;28;20504;-80
2022/03/31 09:18:02;;;;;;;22.73;12.00;;;11.70;99.90;;;;;;5063508;28;20482;-79
2022/03/31 09:20:38;;;;;;;19.23;10.30;;;11.80;99.90;;;;;;5067785;28;20553;-79
2022/03/31 09:23:14;;;;;;;15.37;11.27;;;11.80;99.90;;;;;;5066298;28;20472;-81
2022/03/31 09:25:43;;;;;;;17.53;11.50;;;11.80;99.90;;;;;;5069204;28;20466;-79
2022/03/31 09:28:16;;;;;;;16.63;11.43;;;11.90;99.90;;;;;;5070300;28;20455;-79
2022/03/31 09:30:45;;;;;;;14.10;10.23;;;11.90;99.90;;;;;;5058118;28;20623;-79
2022/03/31 09:33:26;;;;;;;19.83;11.10;;;11.90;99.90;;;;;;5069365;28;20506;-79
2022/03/31 09:36:04;;;;;;;14.73;9.47;;;12.00;99.90;;;;;;5070058;28;20434;-79
2022/03/31 09:38:36;;;;;;;17.90;11.60;;;12.00;99.90;;;;;;5059048;28;20465;-79
2022/03/31 09:41:18;;;;;;;16.77;9.83;;;12.00;99.90;;;;;;5063419;28;20474;-80
2022/03/31 09:43:47;;;;;;;15.23;8.90;;;12.40;99.90;;;;;;5062016;28;20553;-79
2022/03/31 09:46:21;;;;;;;23.77;10.90;;;12.10;99.90;;;;;;5064123;28;20530;-81
2022/03/31 09:48:50;;;;;;;12.20;8.73;;;12.00;99.90;;;;;;5067644;28;20553;-78
2022/03/31 09:51:20;;;;;;;18.30;11.00;;;12.10;99.90;;;;;;5064268;28;20473;-79
2022/03/31 09:53:51;;;;;;;15.03;10.30;;;12.00;99.90;;;;;;5072396;28;20446;-82
2022/03/31 09:56:21;;;;;;;14.93;10.07;;;12.00;99.90;;;;;;5066242;28;20525;-78
2022/03/31 09:58:49;;;;;;;16.40;10.07;;;12.10;99.90;;;;;;5063275;28;20465;-79
2022/03/31 10:01:19;;;;;;;17.63;10.80;;;12.20;99.90;;;;;;5062053;28;20467;-80
2022/03/31 10:03:48;;;;;;;13.90;10.53;;;12.10;99.90;;;;;;5059445;28;20465;-82
2022/03/31 10:06:17;;;;;;;14.03;8.63;;;12.20;99.90;;;;;;5061611;28;20821;-79
2022/03/31 10:08:47;;;;;;;15.83;9.70;;;12.30;99.90;;;;;;5069974;28;20487;-79
2022/03/31 10:11:20;;;;;;;16.10;11.00;;;12.30;99.90;;;;;;5063587;28;20478;-82
2022/03/31 10:14:01;;;;;;;15.33;10.30;;;12.30;99.90;;;;;;5065216;28;20454;-81
2022/03/31 10:16:38;;;;;;;15.53;9.70;;;12.30;99.90;;;;;;5065096;28;23242;-78
2022/03/31 10:19:08;;;;;;;16.20;9.20;;;12.30;99.90;;;;;;5070155;28;20445;-78
2022/03/31 10:21:36;;;;;;;16.40;10.53;;;12.30;99.90;;;;;;5069764;28;20450;-79
2022/03/31 10:27:01;;;;;;;13.47;10.50;;;12.40;99.90;;;;;;5040019;28;20471;-80
2022/03/31 10:29:40;;;;;;;18.03;10.10;;;12.40;99.90;;;;;;5067974;28;20533;-78
2022/03/31 10:32:19;;;;;;;14.60;9.77;;;12.50;99.90;;;;;;5057833;28;20466;-79
2022/03/31 10:34:49;;;;;;;15.80;10.10;;;12.50;99.90;;;;;;5068286;28;21146;-81
2022/03/31 10:37:30;;;;;;;13.70;9.10;;;12.60;99.90;;;;;;5070699;28;20485;-79
2022/03/31 10:40:00;;;;;;;15.40;10.80;;;12.60;99.90;;;;;;5062623;28;20965;-78
2022/03/31 10:42:29;;;;;;;15.80;10.10;;;12.60;99.90;;;;;;5061611;28;20459;-77
2022/03/31 10:45:12;;;;;;;12.30;9.13;;;12.50;99.90;;;;;;5060566;28;20821;-77
2022/03/31 10:47:41;;;;;;;14.93;9.00;;;12.50;99.90;;;;;;5064349;28;20963;-77
2022/03/31 10:50:21;;;;;;;16.03;10.33;;;12.50;99.90;;;;;;5063578;28;20474;-78
2022/03/31 10:52:59;;;;;;;12.63;8.70;;;12.60;99.90;;;;;;5070539;28;20456;-78
2022/03/31 10:55:35;;;;;;;13.93;9.60;;;12.60;99.90;;;;;;5065781;28;20500;-80
2022/03/31 10:58:06;;;;;;;14.90;9.93;;;12.80;99.90;;;;;;5065487;28;20493;-79
2022/03/31 11:00:36;;;;;;;13.90;9.33;;;12.80;99.90;;;;;;5062874;28;20478;-80
2022/03/31 11:03:05;;;;;;;13.43;8.97;;;12.80;99.90;;;;;;5065641;28;20487;-78
2022/03/31 11:05:50;;;;;;;12.60;8.70;;;12.80;99.90;;;;;;5066258;28;20441;-79
2022/03/31 11:08:19;;;;;;;15.60;9.20;;;12.80;99.90;;;;;;5062905;28;20446;-78
2022/03/31 11:10:49;;;;;;;12.57;9.60;;;12.90;99.90;;;;;;5064828;28;20462;-81
2022/03/31 11:13:20;;;;;;;16.70;9.87;;;12.90;99.90;;;;;;5062229;28;20452;-79
2022/03/31 11:15:50;;;;;;;15.53;9.43;;;12.80;99.90;;;;;;5061715;28;21008;-79
2022/03/31 11:18:22;;;;;;;15.10;10.40;;;12.80;99.90;;;;;;5069870;28;20516;-79
2022/03/31 11:20:51;;;;;;;15.67;8.73;;;12.80;99.90;;;;;;5063196;28;20483;-79
2022/03/31 11:23:20;;;;;;;12.33;8.30;;;12.70;99.90;;;;;;5062536;28;20446;-78
2022/03/31 11:25:48;;;;;;;13.30;9.80;;;12.70;99.90;;;;;;5061892;28;20467;-79
2022/03/31 11:28:17;;;;;;;14.03;8.87;;;12.90;99.90;;;;;;5062018;28;20496;-79
2022/03/31 11:30:48;;;;;;;15.33;9.03;;;12.80;99.90;;;;;;5061254;28;20474;-79
2022/03/31 11:33:16;;;;;;;17.20;9.70;;;12.80;99.90;;;;;;5066398;28;21504;-78
2022/03/31 11:35:52;;;;;;;14.97;8.93;;;12.70;99.90;;;;;;5060026;28;20474;-79
2022/03/31 11:38:20;;;;;;;12.02;9.00;;;12.80;99.90;;;;;;5059940;28;20448;-77
2022/03/31 11:40:50;;;;;;;11.77;9.20;;;12.80;99.90;;;;;;5052294;28;20216;-77
2022/03/31 11:43:22;;;;;;;15.00;9.20;;;12.90;99.90;;;;;;5050501;28;20450;-77
2022/03/31 11:45:54;;;;;;;20.10;9.77;;;12.90;99.90;;;;;;5052921;28;20520;-77
2022/03/31 11:48:35;;;;;;;15.73;11.70;;;13.00;99.90;;;;;;5065623;28;20437;-77
2022/03/31 11:51:06;;;;;;;15.67;11.07;;;13.10;99.90;;;;;;5066672;28;21844;-77
2022/03/31 11:53:40;;;;;;;13.73;10.00;;;13.00;99.90;;;;;;5068277;28;20454;-79
2022/03/31 11:56:11;;;;;;;14.43;8.93;;;13.00;99.90;;;;;;5063806;28;20459;-78
2022/03/31 11:58:47;;;;;;;15.30;10.20;;;13.00;99.90;;;;;;5060219;28;20462;-82
2022/03/31 12:01:19;;;;;;;15.37;10.03;;;12.90;99.90;;;;;;5060243;28;20467;-80
2022/03/31 12:03:47;;;;;;;13.50;9.60;;;12.90;99.90;;;;;;5063807;28;20444;-78
2022/03/31 12:06:17;;;;;;;17.03;11.50;;;12.90;99.90;;;;;;5064983;28;20542;-79
2022/03/31 12:08:46;;;;;;;16.07;9.30;;;12.90;99.90;;;;;;5060588;28;20486;-78
2022/03/31 12:11:17;;;;;;;14.90;11.13;;;13.00;99.90;;;;;;5063209;28;20478;-78
2022/03/31 12:13:50;;;;;;;11.73;9.17;;;12.90;99.90;;;;;;5064818;28;20523;-78
2022/03/31 12:16:22;;;;;;;14.73;10.27;;;13.00;99.90;;;;;;5069225;28;20963;-77
2022/03/31 12:18:55;;;;;;;14.57;9.10;;;13.00;99.90;;;;;;5060928;28;20515;-79
2022/03/31 12:21:24;;;;;;;17.10;10.43;;;13.00;99.90;;;;;;5069272;28;20816;-79
2022/03/31 12:23:53;;;;;;;15.70;9.50;;;13.00;99.90;;;;;;5067994;28;20825;-78
2022/03/31 12:26:41;;;;;;;14.20;9.30;;;13.10;99.90;;;;;;5065230;28;20539;-79
2022/03/31 12:29:16;;;;;;;13.97;9.80;;;13.00;99.90;;;;;;5064375;28;20946;-79
2022/03/31 12:31:46;;;;;;;15.20;9.57;;;13.10;99.90;;;;;;5059491;28;20552;-77
2022/03/31 12:34:15;;;;;;;18.90;11.57;;;13.10;99.90;;;;;;5060499;28;20851;-76
2022/03/31 12:36:44;;;;;;;16.30;11.27;;;13.00;99.90;;;;;;5060801;28;20473;-79
2022/03/31 12:39:14;;;;;;;19.27;12.27;;;13.00;99.90;;;;;;5066324;28;20877;-78
2022/03/31 12:41:42;;;;;;;16.33;11.27;;;12.90;99.90;;;;;;5060901;28;20464;-78
2022/03/31 12:44:16;;;;;;;26.20;13.07;;;13.00;99.90;;;;;;5064426;28;20443;-77
2022/03/31 12:46:53;;;;;;;26.43;16.20;;;13.00;99.90;;;;;;5067083;28;20467;-79
2022/03/31 12:49:23;;;;;;;19.07;11.10;;;13.10;99.90;;;;;;5070471;28;20539;-78
2022/03/31 12:51:53;;;;;;;16.30;10.57;;;13.10;99.90;;;;;;5073346;28;20462;-78